This is the latest recevied weather packets stored in our database for station/object N2PPN. If no packets are shown the sender has not sent any weather packets the latest 10 day(s).
| Time | Temp. | Humidity | Pressure | Rain* | Wind** | Luminosity | Snow |
|---|---|---|---|---|---|---|---|
| 1777819064 | 10.56° C | 49% | 1014.3 hPa | 0 mm | - | 651 W/m² | - |
| 1777818761 | 10.56° C | 49% | 1014.5 hPa | 0 mm | - | 614 W/m² | - |
| 1777818154 | 10.56° C | 50% | 1014.4 hPa | 0 mm | - | 582 W/m² | - |
| 1777817851 | 10.56° C | 50% | 1014.3 hPa | 0 mm | - | 572 W/m² | - |
| 1777817548 | 10.56° C | 51% | 1014.3 hPa | 0 mm | - | 566 W/m² | - |
| 1777817245 | 10.56° C | 51% | 1014.2 hPa | 0 mm | - | 551 W/m² | - |
| 1777816033 | 10.56° C | 50% | 1014.5 hPa | 0 mm | - | 506 W/m² | - |
| 1777815428 | 10° C | 53% | 1014.3 hPa | 0 mm | - | 475 W/m² | - |
| 1777814821 | 9.44° C | 54% | 1014.2 hPa | 0 mm | - | 448 W/m² | - |
| 1777814517 | 10° C | 53% | 1014.3 hPa | 0 mm | - | 435 W/m² | - |
| 1777814215 | 9.44° C | 54% | 1014.2 hPa | 0 mm | - | 420 W/m² | - |
| 1777813911 | 9.44° C | 55% | 1014.2 hPa | 0 mm | - | 406 W/m² | - |
| 1777813609 | 9.44° C | 55% | 1014.3 hPa | 0 mm | - | 392 W/m² | - |
| 1777811794 | 9.44° C | 56% | 1014.1 hPa | 0 mm | - | 267 W/m² | - |
| 1777811491 | 8.89° C | 57% | 1014.3 hPa | 0 mm | - | 333 W/m² | - |
| 1777810885 | 8.33° C | 58% | 1014.2 hPa | 0 mm | - | 262 W/m² | - |
| 1777810278 | 8.33° C | 58% | 1014.4 hPa | 0 mm | - | 230 W/m² | - |
| 1777809364 | 7.78° C | 60% | 1013.9 hPa | 0 mm | - | 91 W/m² | - |
| 1777808759 | 7.78° C | 60% | 1014.2 hPa | 0 mm | - | 98 W/m² | - |
| 1777808153 | 7.78° C | 60% | 1014.4 hPa | 0 mm | - | 91 W/m² | - |
| 1777807851 | 7.22° C | 61% | 1014.1 hPa | 0 mm | - | 87 W/m² | - |
| 1777806942 | 7.22° C | 62% | 1014 hPa | 0 mm | - | 76 W/m² | - |
| 1777806638 | 7.22° C | 61% | 1013.8 hPa | 0 mm | - | 61 W/m² | - |
| 1777806334 | 7.22° C | 62% | 1013.8 hPa | 0 mm | - | 65 W/m² | - |
| 1777804216 | 6.67° C | 63% | 1013.4 hPa | 0 mm | - | 24 W/m² | - |
* Rain latest hour (hover to see other rain measurements)
** Current wind speed in m/s (hover to see current wind gust speed)